sensor_id;sensor_type;location;lat;lon;timestamp;pressure;altitude;pressure_sealevel;temperature;humidity
61757;BME280;57225;61.460;24.060;2023-02-22T00:01:58;100314.72;;;-10.76;100.00
61757;BME280;57225;61.460;24.060;2023-02-22T00:04:56;100308.97;;;-10.84;100.00
61757;BME280;57225;61.460;24.060;2023-02-22T00:07:42;100313.47;;;-11.27;100.00
61757;BME280;57225;61.460;24.060;2023-02-22T00:10:27;100318.25;;;-11.34;100.00
61757;BME280;57225;61.460;24.060;2023-02-22T00:13:13;100317.75;;;-11.58;100.00
61757;BME280;57225;61.460;24.060;2023-02-22T00:15:58;100319.84;;;-11.60;100.00
61757;BME280;57225;61.460;24.060;2023-02-22T00:18:43;100329.31;;;-11.57;100.00
61757;BME280;57225;61.460;24.060;2023-02-22T00:21:27;100328.78;;;-11.54;100.00
61757;BME280;57225;61.460;24.060;2023-02-22T00:24:14;100326.75;;;-11.42;100.00
61757;BME280;57225;61.460;24.060;2023-02-22T00:27:07;100324.44;;;-11.33;100.00
61757;BME280;57225;61.460;24.060;2023-02-22T00:29:52;100333.28;;;-11.38;100.00
61757;BME280;57225;61.460;24.060;2023-02-22T00:32:39;100338.53;;;-11.48;100.00
61757;BME280;57225;61.460;24.060;2023-02-22T00:35:25;100331.28;;;-11.74;100.00
61757;BME280;57225;61.460;24.060;2023-02-22T00:38:12;100342.72;;;-12.06;100.00
61757;BME280;57225;61.460;24.060;2023-02-22T00:40:57;100344.13;;;-12.20;100.00
61757;BME280;57225;61.460;24.060;2023-02-22T00:43:41;100343.59;;;-12.22;100.00
61757;BME280;57225;61.460;24.060;2023-02-22T00:46:26;100351.41;;;-12.37;100.00
61757;BME280;57225;61.460;24.060;2023-02-22T00:49:10;100361.81;;;-12.24;100.00
61757;BME280;57225;61.460;24.060;2023-02-22T00:51:54;100349.78;;;-12.22;100.00
61757;BME280;57225;61.460;24.060;2023-02-22T00:54:39;100360.19;;;-12.25;100.00
61757;BME280;57225;61.460;24.060;2023-02-22T00:57:24;100354.00;;;-12.26;100.00
61757;BME280;57225;61.460;24.060;2023-02-22T01:00:13;100361.09;;;-12.36;100.00
61757;BME280;57225;61.460;24.060;2023-02-22T01:02:58;100359.81;;;-12.34;100.00
61757;BME280;57225;61.460;24.060;2023-02-22T01:05:58;100363.16;;;-12.43;100.00
61757;BME280;57225;61.460;24.060;2023-02-22T01:08:44;100366.88;;;-12.44;100.00
61757;BME280;57225;61.460;24.060;2023-02-22T01:11:29;100365.19;;;-12.50;100.00
61757;BME280;57225;61.460;24.060;2023-02-22T01:14:14;100364.31;;;-12.56;100.00
61757;BME280;57225;61.460;24.060;2023-02-22T01:16:58;100358.44;;;-12.70;100.00
61757;BME280;57225;61.460;24.060;2023-02-22T01:19:42;100370.16;;;-12.76;100.00
61757;BME280;57225;61.460;24.060;2023-02-22T01:22:27;100373.75;;;-12.87;100.00
61757;BME280;57225;61.460;24.060;2023-02-22T01:25:16;100379.56;;;-13.07;100.00
61757;BME280;57225;61.460;24.060;2023-02-22T01:28:01;100383.16;;;-13.34;100.00
61757;BME280;57225;61.460;24.060;2023-02-22T01:30:45;100376.44;;;-13.49;100.00
61757;BME280;57225;61.460;24.060;2023-02-22T01:33:30;100390.66;;;-13.48;100.00
61757;BME280;57225;61.460;24.060;2023-02-22T01:36:16;100392.97;;;-13.52;100.00
61757;BME280;57225;61.460;24.060;2023-02-22T01:39:02;100389.16;;;-13.56;100.00
61757;BME280;57225;61.460;24.060;2023-02-22T01:41:46;100392.22;;;-13.64;100.00
61757;BME280;57225;61.460;24.060;2023-02-22T01:44:34;100385.13;;;-13.70;100.00
61757;BME280;57225;61.460;24.060;2023-02-22T01:47:19;100391.31;;;-13.69;100.00
61757;BME280;57225;61.460;24.060;2023-02-22T01:50:03;100403.69;;;-13.80;100.00
61757;BME280;57225;61.460;24.060;2023-02-22T01:52:48;100405.69;;;-13.87;100.00
61757;BME280;57225;61.460;24.060;2023-02-22T01:55:33;100407.22;;;-13.91;100.00
61757;BME280;57225;61.460;24.060;2023-02-22T01:58:20;100411.06;;;-14.34;100.00
61757;BME280;57225;61.460;24.060;2023-02-22T02:01:07;100412.84;;;-14.39;100.00
61757;BME280;57225;61.460;24.060;2023-02-22T02:03:55;100410.94;;;-14.15;100.00
61757;BME280;57225;61.460;24.060;2023-02-22T02:06:41;100416.56;;;-14.17;100.00
61757;BME280;57225;61.460;24.060;2023-02-22T02:09:39;100413.84;;;-14.29;100.00
61757;BME280;57225;61.460;24.060;2023-02-22T02:12:28;100428.50;;;-13.96;100.00
61757;BME280;57225;61.460;24.060;2023-02-22T02:15:24;100424.88;;;-13.90;100.00
61757;BME280;57225;61.460;24.060;2023-02-22T02:18:11;100427.44;;;-13.95;100.00
61757;BME280;57225;61.460;24.060;2023-02-22T02:27:45;100444.94;;;-14.16;100.00
61757;BME280;57225;61.460;24.060;2023-02-22T02:31:12;100442.50;;;-14.17;100.00
61757;BME280;57225;61.460;24.060;2023-02-22T02:34:25;100438.88;;;-14.11;100.00
61757;BME280;57225;61.460;24.060;2023-02-22T02:37:46;100446.66;;;-14.21;100.00
61757;BME280;57225;61.460;24.060;2023-02-22T02:40:36;100447.47;;;-14.09;100.00
61757;BME280;57225;61.460;24.060;2023-02-22T02:43:38;100433.66;;;-14.30;100.00
61757;BME280;57225;61.460;24.060;2023-02-22T02:46:39;100444.94;;;-14.28;100.00
61757;BME280;57225;61.460;24.060;2023-02-22T02:49:44;100440.50;;;-14.22;100.00
61757;BME280;57225;61.460;24.060;2023-02-22T02:52:30;100453.44;;;-14.31;100.00
61757;BME280;57225;61.460;24.060;2023-02-22T02:55:17;100456.47;;;-14.39;100.00
61757;BME280;57225;61.460;24.060;2023-02-22T02:58:07;100455.88;;;-14.41;100.00
61757;BME280;57225;61.460;24.060;2023-02-22T03:00:55;100464.25;;;-14.26;100.00
61757;BME280;57225;61.460;24.060;2023-02-22T03:12:58;100473.69;;;-14.46;100.00
61757;BME280;57225;61.460;24.060;2023-02-22T03:18:58;100479.13;;;-14.53;100.00
61757;BME280;57225;61.460;24.060;2023-02-22T03:24:55;100476.72;;;-14.54;100.00
61757;BME280;57225;61.460;24.060;2023-02-22T03:27:42;100481.78;;;-14.76;100.00
61757;BME280;57225;61.460;24.060;2023-02-22T03:30:36;100487.22;;;-14.83;100.00
61757;BME280;57225;61.460;24.060;2023-02-22T03:33:32;100483.69;;;-14.95;100.00
61757;BME280;57225;61.460;24.060;2023-02-22T03:36:25;100495.91;;;-14.99;100.00
61757;BME280;57225;61.460;24.060;2023-02-22T03:39:14;100500.13;;;-15.10;100.00
61757;BME280;57225;61.460;24.060;2023-02-22T03:42:04;100503.28;;;-15.13;100.00
61757;BME280;57225;61.460;24.060;2023-02-22T03:44:51;100495.06;;;-14.99;100.00
61757;BME280;57225;61.460;24.060;2023-02-22T03:47:47;100501.09;;;-14.74;100.00
61757;BME280;57225;61.460;24.060;2023-02-22T03:50:36;100511.78;;;-14.74;100.00
61757;BME280;57225;61.460;24.060;2023-02-22T03:53:21;100511.13;;;-14.58;100.00
61757;BME280;57225;61.460;24.060;2023-02-22T03:56:07;100524.19;;;-14.50;100.00
61757;BME280;57225;61.460;24.060;2023-02-22T03:58:54;100524.88;;;-14.43;100.00
61757;BME280;57225;61.460;24.060;2023-02-22T04:01:38;100533.97;;;-14.44;100.00
61757;BME280;57225;61.460;24.060;2023-02-22T04:04:24;100530.59;;;-14.39;100.00
61757;BME280;57225;61.460;24.060;2023-02-22T04:07:08;100524.41;;;-14.40;100.00
61757;BME280;57225;61.460;24.060;2023-02-22T04:09:53;100529.78;;;-14.40;100.00
61757;BME280;57225;61.460;24.060;2023-02-22T04:12:37;100536.84;;;-14.45;100.00
61757;BME280;57225;61.460;24.060;2023-02-22T04:15:22;100536.50;;;-14.49;100.00
61757;BME280;57225;61.460;24.060;2023-02-22T04:18:07;100524.63;;;-14.53;100.00
61757;BME280;57225;61.460;24.060;2023-02-22T04:20:52;100535.78;;;-14.56;100.00
61757;BME280;57225;61.460;24.060;2023-02-22T04:23:36;100543.31;;;-14.64;100.00
61757;BME280;57225;61.460;24.060;2023-02-22T04:26:21;100548.75;;;-14.71;100.00
61757;BME280;57225;61.460;24.060;2023-02-22T04:29:05;100549.44;;;-14.76;100.00
61757;BME280;57225;61.460;24.060;2023-02-22T04:31:50;100557.22;;;-14.86;100.00
61757;BME280;57225;61.460;24.060;2023-02-22T04:34:34;100562.03;;;-14.94;100.00
61757;BME280;57225;61.460;24.060;2023-02-22T04:37:19;100569.75;;;-15.04;100.00
61757;BME280;57225;61.460;24.060;2023-02-22T04:40:04;100555.81;;;-15.06;100.00
61757;BME280;57225;61.460;24.060;2023-02-22T04:42:51;100564.06;;;-15.08;100.00
61757;BME280;57225;61.460;24.060;2023-02-22T04:45:36;100573.25;;;-15.04;100.00
61757;BME280;57225;61.460;24.060;2023-02-22T04:48:20;100574.00;;;-15.15;100.00
61757;BME280;57225;61.460;24.060;2023-02-22T04:51:05;100567.72;;;-15.21;100.00
61757;BME280;57225;61.460;24.060;2023-02-22T04:53:49;100580.31;;;-15.28;100.00
61757;BME280;57225;61.460;24.060;2023-02-22T04:56:34;100580.94;;;-15.26;100.00
61757;BME280;57225;61.460;24.060;2023-02-22T04:59:18;100577.94;;;-15.36;100.00
61757;BME280;57225;61.460;24.060;2023-02-22T05:02:03;100581.56;;;-15.49;100.00
61757;BME280;57225;61.460;24.060;2023-02-22T05:04:47;100582.31;;;-15.41;100.00
61757;BME280;57225;61.460;24.060;2023-02-22T05:07:32;100586.88;;;-15.24;100.00
61757;BME280;57225;61.460;24.060;2023-02-22T05:10:16;100591.47;;;-15.13;100.00
61757;BME280;57225;61.460;24.060;2023-02-22T05:13:01;100598.00;;;-15.09;100.00
61757;BME280;57225;61.460;24.060;2023-02-22T05:15:45;100600.06;;;-15.11;100.00
61757;BME280;57225;61.460;24.060;2023-02-22T05:18:30;100600.00;;;-15.22;100.00
61757;BME280;57225;61.460;24.060;2023-02-22T05:21:15;100599.84;;;-15.45;100.00
61757;BME280;57225;61.460;24.060;2023-02-22T05:23:59;100606.59;;;-15.61;100.00
61757;BME280;57225;61.460;24.060;2023-02-22T05:26:44;100606.91;;;-15.69;100.00
61757;BME280;57225;61.460;24.060;2023-02-22T05:29:29;100620.03;;;-15.68;100.00
61757;BME280;57225;61.460;24.060;2023-02-22T05:32:14;100622.78;;;-15.56;100.00
61757;BME280;57225;61.460;24.060;2023-02-22T05:34:58;100629.78;;;-15.37;100.00
61757;BME280;57225;61.460;24.060;2023-02-22T05:37:42;100623.16;;;-15.34;100.00
61757;BME280;57225;61.460;24.060;2023-02-22T05:40:27;100632.81;;;-15.33;100.00
61757;BME280;57225;61.460;24.060;2023-02-22T05:43:12;100630.06;;;-15.27;100.00
61757;BME280;57225;61.460;24.060;2023-02-22T05:45:58;100632.94;;;-15.10;100.00
61757;BME280;57225;61.460;24.060;2023-02-22T05:48:43;100629.31;;;-15.16;100.00
61757;BME280;57225;61.460;24.060;2023-02-22T05:51:27;100629.16;;;-15.21;100.00
61757;BME280;57225;61.460;24.060;2023-02-22T05:54:12;100633.41;;;-15.31;100.00
61757;BME280;57225;61.460;24.060;2023-02-22T05:56:56;100645.13;;;-15.32;100.00
61757;BME280;57225;61.460;24.060;2023-02-22T05:59:41;100644.47;;;-15.28;100.00
61757;BME280;57225;61.460;24.060;2023-02-22T06:02:26;100642.00;;;-15.29;100.00
61757;BME280;57225;61.460;24.060;2023-02-22T06:05:10;100651.22;;;-15.25;100.00
61757;BME280;57225;61.460;24.060;2023-02-22T06:07:55;100653.69;;;-15.24;100.00
61757;BME280;57225;61.460;24.060;2023-02-22T06:10:40;100651.00;;;-15.24;100.00
61757;BME280;57225;61.460;24.060;2023-02-22T06:13:24;100645.66;;;-15.24;100.00
61757;BME280;57225;61.460;24.060;2023-02-22T06:16:09;100646.16;;;-15.33;100.00
61757;BME280;57225;61.460;24.060;2023-02-22T06:18:54;100651.72;;;-15.17;100.00
61757;BME280;57225;61.460;24.060;2023-02-22T06:21:38;100656.19;;;-15.11;100.00
61757;BME280;57225;61.460;24.060;2023-02-22T06:24:22;100661.09;;;-14.89;100.00
61757;BME280;57225;61.460;24.060;2023-02-22T06:27:07;100666.22;;;-14.88;100.00
61757;BME280;57225;61.460;24.060;2023-02-22T06:29:51;100670.16;;;-14.72;100.00
61757;BME280;57225;61.460;24.060;2023-02-22T06:32:36;100672.22;;;-14.56;100.00
61757;BME280;57225;61.460;24.060;2023-02-22T06:35:21;100668.66;;;-14.50;100.00
61757;BME280;57225;61.460;24.060;2023-02-22T06:55:52;100685.06;;;-14.16;100.00
61757;BME280;57225;61.460;24.060;2023-02-22T06:58:37;100693.69;;;-14.33;100.00
61757;BME280;57225;61.460;24.060;2023-02-22T07:01:22;100695.19;;;-14.48;100.00
61757;BME280;57225;61.460;24.060;2023-02-22T07:04:06;100698.56;;;-14.41;100.00
61757;BME280;57225;61.460;24.060;2023-02-22T07:06:51;100708.16;;;-14.22;100.00
61757;BME280;57225;61.460;24.060;2023-02-22T07:09:35;100714.34;;;-14.21;100.00
61757;BME280;57225;61.460;24.060;2023-02-22T07:12:20;100716.88;;;-14.27;100.00
61757;BME280;57225;61.460;24.060;2023-02-22T07:15:04;100721.34;;;-14.20;100.00
61757;BME280;57225;61.460;24.060;2023-02-22T07:17:50;100735.03;;;-14.29;100.00
61757;BME280;57225;61.460;24.060;2023-02-22T07:20:34;100738.28;;;-14.27;100.00
61757;BME280;57225;61.460;24.060;2023-02-22T07:23:19;100751.59;;;-14.20;100.00
61757;BME280;57225;61.460;24.060;2023-02-22T07:26:03;100747.44;;;-14.34;100.00
61757;BME280;57225;61.460;24.060;2023-02-22T07:28:51;100747.88;;;-14.19;100.00
61757;BME280;57225;61.460;24.060;2023-02-22T07:31:36;100743.72;;;-13.85;100.00
61757;BME280;57225;61.460;24.060;2023-02-22T07:34:20;100740.84;;;-13.72;98.94
61757;BME280;57225;61.460;24.060;2023-02-22T07:37:05;100756.44;;;-13.80;99.28
61757;BME280;57225;61.460;24.060;2023-02-22T07:39:49;100771.69;;;-13.81;99.70
61757;BME280;57225;61.460;24.060;2023-02-22T07:43:08;100778.00;;;-13.34;97.50
61757;BME280;57225;61.460;24.060;2023-02-22T07:45:57;100785.34;;;-12.94;95.65
61757;BME280;57225;61.460;24.060;2023-02-22T07:48:42;100787.75;;;-13.39;96.41
61757;BME280;57225;61.460;24.060;2023-02-22T07:51:27;100785.16;;;-13.46;97.52
61757;BME280;57225;61.460;24.060;2023-02-22T07:54:11;100790.47;;;-13.69;98.86
61757;BME280;57225;61.460;24.060;2023-02-22T07:56:56;100797.56;;;-13.75;99.07
61757;BME280;57225;61.460;24.060;2023-02-22T07:59:40;100789.47;;;-13.15;99.11
61757;BME280;57225;61.460;24.060;2023-02-22T08:02:25;100788.94;;;-13.00;96.09
61757;BME280;57225;61.460;24.060;2023-02-22T08:05:10;100789.31;;;-12.97;96.61
61757;BME280;57225;61.460;24.060;2023-02-22T08:07:56;100790.00;;;-12.55;96.68
61757;BME280;57225;61.460;24.060;2023-02-22T08:10:41;100776.00;;;-12.69;96.30
61757;BME280;57225;61.460;24.060;2023-02-22T08:13:25;100787.91;;;-12.76;96.53
61757;BME280;57225;61.460;24.060;2023-02-22T08:16:10;100784.88;;;-12.80;98.47
61757;BME280;57225;61.460;24.060;2023-02-22T08:18:54;100789.16;;;-12.32;96.28
61757;BME280;57225;61.460;24.060;2023-02-22T08:21:39;100790.59;;;-12.41;95.81
61757;BME280;57225;61.460;24.060;2023-02-22T08:24:23;100798.63;;;-12.30;97.55
61757;BME280;57225;61.460;24.060;2023-02-22T08:27:07;100795.19;;;-12.02;96.53
61757;BME280;57225;61.460;24.060;2023-02-22T08:29:53;100789.44;;;-12.05;96.76
61757;BME280;57225;61.460;24.060;2023-02-22T08:32:37;100791.53;;;-12.07;97.13
61757;BME280;57225;61.460;24.060;2023-02-22T08:35:22;100798.13;;;-12.15;96.30
61757;BME280;57225;61.460;24.060;2023-02-22T08:41:00;100795.19;;;-12.02;97.37
61757;BME280;57225;61.460;24.060;2023-02-22T08:43:44;100806.81;;;-11.68;96.50
61757;BME280;57225;61.460;24.060;2023-02-22T08:46:29;100816.13;;;-11.59;95.35
61757;BME280;57225;61.460;24.060;2023-02-22T08:49:13;100819.69;;;-11.70;95.04
61757;BME280;57225;61.460;24.060;2023-02-22T08:51:58;100811.81;;;-11.76;96.50
61757;BME280;57225;61.460;24.060;2023-02-22T08:54:44;100823.97;;;-11.57;94.56
61757;BME280;57225;61.460;24.060;2023-02-22T08:57:28;100821.66;;;-11.65;95.45
61757;BME280;57225;61.460;24.060;2023-02-22T09:00:16;100815.03;;;-11.46;94.32
61757;BME280;57225;61.460;24.060;2023-02-22T09:03:02;100806.91;;;-11.34;94.27
61757;BME280;57225;61.460;24.060;2023-02-22T09:05:46;100805.22;;;-10.90;93.66
61757;BME280;57225;61.460;24.060;2023-02-22T09:08:31;100812.03;;;-10.49;89.34
61757;BME280;57225;61.460;24.060;2023-02-22T09:11:15;100810.66;;;-10.30;86.55
61757;BME280;57225;61.460;24.060;2023-02-22T09:14:01;100816.97;;;-10.25;86.36
61757;BME280;57225;61.460;24.060;2023-02-22T09:16:46;100810.50;;;-10.02;86.31
61757;BME280;57225;61.460;24.060;2023-02-22T09:19:30;100809.34;;;-9.84;85.44
61757;BME280;57225;61.460;24.060;2023-02-22T09:22:15;100810.09;;;-10.10;85.24
61757;BME280;57225;61.460;24.060;2023-02-22T09:24:59;100819.72;;;-10.20;83.85
61757;BME280;57225;61.460;24.060;2023-02-22T09:27:46;100814.50;;;-10.04;86.22
61757;BME280;57225;61.460;24.060;2023-02-22T09:30:32;100811.72;;;-10.09;84.72
61757;BME280;57225;61.460;24.060;2023-02-22T09:33:19;100807.19;;;-9.60;82.62
61757;BME280;57225;61.460;24.060;2023-02-22T09:36:04;100799.88;;;-9.65;81.68
61757;BME280;57225;61.460;24.060;2023-02-22T09:38:50;100809.00;;;-10.53;83.70
61757;BME280;57225;61.460;24.060;2023-02-22T09:41:41;100813.38;;;-10.30;86.14
61757;BME280;57225;61.460;24.060;2023-02-22T09:47:57;100819.63;;;-10.46;86.41
61757;BME280;57225;61.460;24.060;2023-02-22T09:50:47;100826.34;;;-10.27;85.99
61757;BME280;57225;61.460;24.060;2023-02-22T09:53:41;100823.03;;;-10.34;85.35
61757;BME280;57225;61.460;24.060;2023-02-22T09:56:29;100822.84;;;-10.28;85.99
61757;BME280;57225;61.460;24.060;2023-02-22T09:59:17;100823.84;;;-9.90;84.56
61757;BME280;57225;61.460;24.060;2023-02-22T10:02:22;100820.56;;;-9.92;84.13
61757;BME280;57225;61.460;24.060;2023-02-22T10:08:02;100823.88;;;-10.67;86.26
61757;BME280;57225;61.460;24.060;2023-02-22T10:11:00;100817.03;;;-11.08;89.46
61757;BME280;57225;61.460;24.060;2023-02-22T10:17:30;100808.56;;;-11.00;90.33
61757;BME280;57225;61.460;24.060;2023-02-22T10:20:43;100814.59;;;-10.76;90.35
61757;BME280;57225;61.460;24.060;2023-02-22T10:26:19;100823.16;;;-10.63;87.94
61757;BME280;57225;61.460;24.060;2023-02-22T10:31:57;100829.22;;;-9.90;86.08
61757;BME280;57225;61.460;24.060;2023-02-22T10:34:46;100826.25;;;-9.67;84.05
61757;BME280;57225;61.460;24.060;2023-02-22T10:37:37;100836.88;;;-10.04;85.68
61757;BME280;57225;61.460;24.060;2023-02-22T10:40:23;100824.91;;;-10.13;85.96
61757;BME280;57225;61.460;24.060;2023-02-22T10:43:15;100817.50;;;-10.01;85.97
61757;BME280;57225;61.460;24.060;2023-02-22T10:46:03;100814.84;;;-9.25;84.48
61757;BME280;57225;61.460;24.060;2023-02-22T10:48:55;100820.84;;;-8.91;80.98
61757;BME280;57225;61.460;24.060;2023-02-22T10:51:47;100819.63;;;-8.37;78.90
61757;BME280;57225;61.460;24.060;2023-02-22T10:54:45;100826.31;;;-8.44;78.65
61757;BME280;57225;61.460;24.060;2023-02-22T10:57:33;100818.06;;;-8.23;79.27
61757;BME280;57225;61.460;24.060;2023-02-22T11:00:29;100816.31;;;-7.87;77.07
61757;BME280;57225;61.460;24.060;2023-02-22T11:03:20;100825.84;;;-7.74;77.01
61757;BME280;57225;61.460;24.060;2023-02-22T11:06:18;100821.25;;;-7.74;76.38
61757;BME280;57225;61.460;24.060;2023-02-22T11:12:09;100821.13;;;-7.21;74.50
61757;BME280;57225;61.460;24.060;2023-02-22T11:14:54;100820.84;;;-7.20;74.33
61757;BME280;57225;61.460;24.060;2023-02-22T11:17:38;100836.84;;;-7.23;74.21
61757;BME280;57225;61.460;24.060;2023-02-22T11:20:29;100829.53;;;-7.18;74.65
61757;BME280;57225;61.460;24.060;2023-02-22T11:23:20;100833.34;;;-7.09;73.72
61757;BME280;57225;61.460;24.060;2023-02-22T11:26:10;100828.97;;;-7.25;73.71
61757;BME280;57225;61.460;24.060;2023-02-22T11:28:57;100829.00;;;-6.69;70.82
61757;BME280;57225;61.460;24.060;2023-02-22T11:31:44;100821.97;;;-7.06;73.16
61757;BME280;57225;61.460;24.060;2023-02-22T11:34:37;100814.94;;;-6.66;70.75
61757;BME280;57225;61.460;24.060;2023-02-22T11:40:20;100816.03;;;-6.72;69.94
61757;BME280;57225;61.460;24.060;2023-02-22T11:43:23;100819.53;;;-6.87;70.35
61757;BME280;57225;61.460;24.060;2023-02-22T11:46:17;100817.09;;;-6.94;71.03
61757;BME280;57225;61.460;24.060;2023-02-22T11:49:06;100823.56;;;-7.20;72.21
61757;BME280;57225;61.460;24.060;2023-02-22T11:55:23;100828.91;;;-7.50;72.60
61757;BME280;57225;61.460;24.060;2023-02-22T11:58:39;100837.50;;;-7.63;75.71
61757;BME280;57225;61.460;24.060;2023-02-22T12:04:55;100846.16;;;-7.72;75.98
61757;BME280;57225;61.460;24.060;2023-02-22T12:20:28;100852.09;;;-7.69;76.50
61757;BME280;57225;61.460;24.060;2023-02-22T12:23:40;100857.00;;;-7.66;74.29
61757;BME280;57225;61.460;24.060;2023-02-22T12:26:33;100851.72;;;-7.98;77.41
61757;BME280;57225;61.460;24.060;2023-02-22T12:32:34;100852.22;;;-8.01;74.86
61757;BME280;57225;61.460;24.060;2023-02-22T12:35:23;100849.50;;;-8.06;77.46
61757;BME280;57225;61.460;24.060;2023-02-22T12:38:24;100847.16;;;-7.83;76.58
61757;BME280;57225;61.460;24.060;2023-02-22T12:41:26;100836.06;;;-7.91;76.57
61757;BME280;57225;61.460;24.060;2023-02-22T12:44:24;100841.13;;;-8.05;76.93
61757;BME280;57225;61.460;24.060;2023-02-22T12:47:16;100836.09;;;-7.86;76.54
61757;BME280;57225;61.460;24.060;2023-02-22T12:50:12;100849.41;;;-7.64;76.33
61757;BME280;57225;61.460;24.060;2023-02-22T12:53:22;100842.69;;;-7.52;75.06
61757;BME280;57225;61.460;24.060;2023-02-22T12:56:30;100855.97;;;-7.55;75.58
61757;BME280;57225;61.460;24.060;2023-02-22T12:59:48;100849.50;;;-8.06;76.45
61757;BME280;57225;61.460;24.060;2023-02-22T13:02:46;100857.44;;;-8.37;78.30
61757;BME280;57225;61.460;24.060;2023-02-22T13:05:37;100856.72;;;-8.22;78.96
61757;BME280;57225;61.460;24.060;2023-02-22T13:08:34;100850.53;;;-8.13;76.97
61757;BME280;57225;61.460;24.060;2023-02-22T13:21:05;100857.13;;;-7.98;77.97
61757;BME280;57225;61.460;24.060;2023-02-22T13:24:25;100821.25;;;-8.26;78.08
61757;BME280;57225;61.460;24.060;2023-02-22T13:27:12;100840.44;;;-8.32;80.27
61757;BME280;57225;61.460;24.060;2023-02-22T13:29:59;100850.78;;;-8.19;80.14
61757;BME280;57225;61.460;24.060;2023-02-22T13:33:23;100846.94;;;-8.28;80.96
61757;BME280;57225;61.460;24.060;2023-02-22T13:36:36;100843.25;;;-8.12;80.10
61757;BME280;57225;61.460;24.060;2023-02-22T13:39:42;100853.50;;;-8.14;81.39
61757;BME280;57225;61.460;24.060;2023-02-22T13:42:49;100846.84;;;-7.96;79.15
61757;BME280;57225;61.460;24.060;2023-02-22T13:52:09;100842.28;;;-7.91;78.71
61757;BME280;57225;61.460;24.060;2023-02-22T13:55:01;100840.00;;;-8.09;79.87
61757;BME280;57225;61.460;24.060;2023-02-22T13:58:03;100833.59;;;-7.98;78.85
61757;BME280;57225;61.460;24.060;2023-02-22T14:00:56;100831.72;;;-7.97;80.50
61757;BME280;57225;61.460;24.060;2023-02-22T14:03:41;100831.34;;;-8.11;79.75
61757;BME280;57225;61.460;24.060;2023-02-22T14:06:36;100841.06;;;-8.15;79.94
61757;BME280;57225;61.460;24.060;2023-02-22T14:09:44;100832.63;;;-8.29;80.65
61757;BME280;57225;61.460;24.060;2023-02-22T14:15:16;100841.63;;;-8.13;80.28
61757;BME280;57225;61.460;24.060;2023-02-22T14:18:12;100845.13;;;-8.18;80.67
61757;BME280;57225;61.460;24.060;2023-02-22T14:21:09;100840.44;;;-8.32;80.37
61757;BME280;57225;61.460;24.060;2023-02-22T14:23:56;100840.53;;;-8.59;81.37
61757;BME280;57225;61.460;24.060;2023-02-22T14:26:58;100841.50;;;-8.75;82.53
61757;BME280;57225;61.460;24.060;2023-02-22T14:29:57;100849.84;;;-8.77;82.81
61757;BME280;57225;61.460;24.060;2023-02-22T14:32:43;100845.88;;;-8.96;84.11
61757;BME280;57225;61.460;24.060;2023-02-22T14:35:37;100848.16;;;-9.15;86.17
61757;BME280;57225;61.460;24.060;2023-02-22T14:38:23;100855.91;;;-9.23;86.25
61757;BME280;57225;61.460;24.060;2023-02-22T14:41:08;100856.75;;;-9.45;86.51
61757;BME280;57225;61.460;24.060;2023-02-22T14:43:54;100851.41;;;-9.40;87.86
61757;BME280;57225;61.460;24.060;2023-02-22T14:46:41;100833.53;;;-9.46;85.98
61757;BME280;57225;61.460;24.060;2023-02-22T14:49:35;100848.13;;;-9.42;86.06
61757;BME280;57225;61.460;24.060;2023-02-22T14:52:23;100843.03;;;-9.65;87.33
61757;BME280;57225;61.460;24.060;2023-02-22T14:55:24;100837.66;;;-9.87;88.11
61757;BME280;57225;61.460;24.060;2023-02-22T14:58:19;100831.13;;;-10.12;89.13
61757;BME280;57225;61.460;24.060;2023-02-22T15:04:35;100837.06;;;-10.32;91.43
61757;BME280;57225;61.460;24.060;2023-02-22T15:07:23;100839.34;;;-10.41;92.29
61757;BME280;57225;61.460;24.060;2023-02-22T15:10:29;100831.53;;;-10.59;92.79
61757;BME280;57225;61.460;24.060;2023-02-22T15:13:18;100835.91;;;-10.75;93.12
61757;BME280;57225;61.460;24.060;2023-02-22T15:16:03;100831.66;;;-10.87;94.39
61757;BME280;57225;61.460;24.060;2023-02-22T15:18:53;100822.34;;;-10.96;95.58
61757;BME280;57225;61.460;24.060;2023-02-22T15:21:44;100827.44;;;-11.12;95.62
61757;BME280;57225;61.460;24.060;2023-02-22T15:24:31;100827.53;;;-11.23;97.22
61757;BME280;57225;61.460;24.060;2023-02-22T15:27:16;100833.69;;;-11.40;98.05
61757;BME280;57225;61.460;24.060;2023-02-22T15:30:15;100839.84;;;-11.56;97.38
61757;BME280;57225;61.460;24.060;2023-02-22T15:33:16;100825.69;;;-11.79;98.61
61757;BME280;57225;61.460;24.060;2023-02-22T15:36:01;100825.50;;;-11.90;99.51
61757;BME280;57225;61.460;24.060;2023-02-22T15:38:50;100838.06;;;-12.18;98.32
61757;BME280;57225;61.460;24.060;2023-02-22T15:41:35;100844.38;;;-12.36;99.69
61757;BME280;57225;61.460;24.060;2023-02-22T15:44:19;100838.66;;;-12.51;100.00
61757;BME280;57225;61.460;24.060;2023-02-22T15:47:04;100846.03;;;-12.58;100.00
61757;BME280;57225;61.460;24.060;2023-02-22T15:53:25;100841.47;;;-12.70;100.00
61757;BME280;57225;61.460;24.060;2023-02-22T15:56:16;100845.66;;;-12.74;100.00
61757;BME280;57225;61.460;24.060;2023-02-22T15:59:09;100845.34;;;-12.77;100.00
61757;BME280;57225;61.460;24.060;2023-02-22T16:01:56;100844.84;;;-12.86;100.00
61757;BME280;57225;61.460;24.060;2023-02-22T16:04:42;100844.25;;;-12.88;100.00
61757;BME280;57225;61.460;24.060;2023-02-22T16:07:27;100839.56;;;-13.04;100.00
61757;BME280;57225;61.460;24.060;2023-02-22T16:10:24;100848.78;;;-13.00;100.00
61757;BME280;57225;61.460;24.060;2023-02-22T16:13:35;100838.03;;;-13.12;100.00